createdAt,value
2023-04-25T00:00:29.366Z,99196.64
2023-04-25T00:03:19.773Z,99194.96
2023-04-25T00:05:49.042Z,99195.10
2023-04-25T00:08:17.731Z,99191.91
2023-04-25T00:10:45.904Z,99187.88
2023-04-25T00:13:14.634Z,99188.66
2023-04-25T00:15:42.758Z,99187.04
2023-04-25T00:18:10.743Z,99183.98
2023-04-25T00:20:45.845Z,99184.88
2023-04-25T00:23:21.071Z,99181.59
2023-04-25T00:25:50.756Z,99178.35
2023-04-25T00:28:18.689Z,99177.15
2023-04-25T00:30:47.243Z,99174.97
2023-04-25T00:33:15.289Z,99172.69
2023-04-25T00:35:43.632Z,99174.19
2023-04-25T00:38:12.328Z,99172.60
2023-04-25T00:40:40.433Z,99173.23
2023-04-25T00:43:08.542Z,99170.30
2023-04-25T00:45:40.800Z,99165.13
2023-04-25T00:48:09.055Z,99164.23
2023-04-25T00:50:38.090Z,99165.40
2023-04-25T00:53:06.570Z,99163.70
2023-04-25T00:55:37.198Z,99163.58
2023-04-25T00:58:05.778Z,99162.64
2023-04-25T01:00:34.267Z,99163.29
2023-04-25T01:03:04.633Z,99161.27
2023-04-25T01:05:32.743Z,99161.20
2023-04-25T01:08:00.711Z,99161.08
2023-04-25T01:10:29.338Z,99158.56
2023-04-25T01:12:57.981Z,99157.69
2023-04-25T01:15:25.827Z,99155.77
2023-04-25T01:17:56.840Z,99152.86
2023-04-25T01:20:26.098Z,99151.05
2023-04-25T01:22:54.784Z,99150.47
2023-04-25T01:25:24.163Z,99150.73
2023-04-25T01:27:52.812Z,99149.66
2023-04-25T01:30:21.493Z,99148.15
2023-04-25T01:32:50.709Z,99149.41
2023-04-25T01:35:18.587Z,99144.46
2023-04-25T01:37:46.881Z,99145.95
2023-04-25T01:40:15.403Z,99147.02
2023-04-25T01:42:45.035Z,99145.23
2023-04-25T01:45:14.223Z,99140.37
2023-04-25T01:47:44.398Z,99141.73
2023-04-25T01:50:12.590Z,99142.49
2023-04-25T01:52:40.892Z,99142.11
2023-04-25T01:55:10.857Z,99140.75
2023-04-25T01:57:42.606Z,99139.98
2023-04-25T02:00:11.981Z,99134.86
2023-04-25T02:02:43.007Z,99134.80
2023-04-25T02:05:24.143Z,99132.95
2023-04-25T02:07:53.478Z,99132.42
2023-04-25T02:10:21.476Z,99131.53
2023-04-25T02:13:06.982Z,99131.09
2023-04-25T02:15:43.051Z,99129.77
2023-04-25T02:18:17.880Z,99129.64
2023-04-25T02:20:47.356Z,99128.41
2023-04-25T02:23:16.498Z,99125.42
2023-04-25T02:25:44.813Z,99124.72
2023-04-25T02:28:13.005Z,99117.54
2023-04-25T02:30:41.022Z,99115.06
2023-04-25T02:33:09.479Z,99113.98
2023-04-25T02:35:37.594Z,99112.79
2023-04-25T02:38:05.635Z,99108.70
2023-04-25T02:40:35.403Z,99111.23
2023-04-25T02:43:03.564Z,99113.13
2023-04-25T02:45:31.823Z,99110.30
2023-04-25T02:47:59.919Z,99109.55
2023-04-25T02:50:27.945Z,99110.95
2023-04-25T02:52:56.517Z,99107.91
2023-04-25T02:55:28.528Z,99108.83
2023-04-25T02:57:57.384Z,99105.95
2023-04-25T03:00:39.827Z,99103.65
2023-04-25T03:03:08.169Z,99099.95
2023-04-25T03:05:36.459Z,99098.90
2023-04-25T03:08:04.874Z,99096.08
2023-04-25T03:10:33.981Z,99095.84
2023-04-25T03:13:05.209Z,99094.23
2023-04-25T03:15:33.666Z,99092.11
2023-04-25T03:18:02.164Z,99088.41
2023-04-25T03:20:30.739Z,99087.95
2023-04-25T03:22:58.812Z,99087.41
2023-04-25T03:25:27.296Z,99086.85
2023-04-25T03:27:55.429Z,99084.36
2023-04-25T03:30:24.243Z,99081.70
2023-04-25T03:32:52.564Z,99083.68
2023-04-25T03:35:21.588Z,99082.91
2023-04-25T03:37:49.546Z,99080.45
2023-04-25T03:40:21.515Z,99078.24
2023-04-25T03:43:07.400Z,99077.64
2023-04-25T03:45:35.966Z,99078.46
2023-04-25T03:48:04.538Z,99082.83
2023-04-25T03:50:32.743Z,99080.66
2023-04-25T03:53:00.893Z,99080.48
2023-04-25T03:55:31.904Z,99084.23
2023-04-25T03:58:01.032Z,99085.64
2023-04-25T04:00:29.186Z,99084.27
2023-04-25T04:02:58.673Z,99085.58
2023-04-25T04:05:27.910Z,99086.56
2023-04-25T04:07:58.204Z,99091.04
2023-04-25T04:10:27.477Z,99087.77
2023-04-25T04:12:56.789Z,99089.71
2023-04-25T04:15:25.241Z,99088.45
2023-04-25T04:17:53.921Z,99088.47
2023-04-25T04:20:22.892Z,99087.23
2023-04-25T04:22:51.486Z,99087.69
2023-04-25T04:25:21.349Z,99090.27
2023-04-25T04:28:09.433Z,99095.08
2023-04-25T04:30:43.727Z,99094.15
2023-04-25T04:33:13.479Z,99093.48
2023-04-25T04:35:43.042Z,99091.42
2023-04-25T04:38:12.946Z,99093.76
2023-04-25T04:40:40.896Z,99090.06
2023-04-25T04:43:21.617Z,99088.40
2023-04-25T04:46:14.293Z,99091.64
2023-04-25T04:49:14.926Z,99089.45
2023-04-25T04:51:45.796Z,99089.27
2023-04-25T04:54:36.707Z,99088.91
2023-04-25T04:57:25.159Z,99088.61
2023-04-25T05:00:13.706Z,99089.35
2023-04-25T05:03:02.466Z,99085.24
2023-04-25T05:05:44.704Z,99084.91
2023-04-25T05:08:31.342Z,99078.02
2023-04-25T05:11:15.718Z,99081.78
2023-04-25T05:14:13.246Z,99078.91
2023-04-25T05:17:07.934Z,99077.77
2023-04-25T05:19:54.331Z,99079.60
2023-04-25T05:22:54.514Z,99074.82
2023-04-25T05:25:54.738Z,99072.77
2023-04-25T05:28:44.775Z,99070.64
2023-04-25T05:31:34.225Z,99067.27
2023-04-25T05:34:31.851Z,99068.95
2023-04-25T05:37:06.620Z,99064.82
2023-04-25T05:39:39.494Z,99061.59
2023-04-25T05:42:39.973Z,99060.49
2023-04-25T05:45:24.320Z,99059.10
2023-04-25T05:48:29.377Z,99057.49
2023-04-25T05:51:07.067Z,99056.91
2023-04-25T05:53:57.160Z,99052.10
2023-04-25T05:56:28.966Z,99054.60
2023-04-25T05:58:58.621Z,99051.82
2023-04-25T06:01:27.633Z,99052.08
2023-04-25T06:03:56.603Z,99054.26
2023-04-25T06:06:25.713Z,99053.45
2023-04-25T06:08:53.608Z,99052.90
2023-04-25T06:11:22.405Z,99050.86
2023-04-25T06:13:50.823Z,99050.57
2023-04-25T06:16:19.207Z,99049.84
2023-04-25T06:18:47.298Z,99046.48
2023-04-25T06:21:17.450Z,99046.86
2023-04-25T06:23:46.383Z,99050.59
2023-04-25T06:26:21.647Z,99051.14
2023-04-25T06:28:50.356Z,99051.30
2023-04-25T06:31:18.906Z,99050.65
2023-04-25T06:33:49.462Z,99049.73
2023-04-25T06:36:18.041Z,99048.93
2023-04-25T06:38:46.969Z,99051.70
2023-04-25T06:41:15.002Z,99051.58
2023-04-25T06:43:43.022Z,99049.62
2023-04-25T06:46:32.457Z,99047.61
2023-04-25T06:49:00.797Z,99048.20
2023-04-25T06:51:30.907Z,99048.36
2023-04-25T06:53:59.377Z,99050.94
2023-04-25T06:56:32.470Z,99051.31
2023-04-25T06:59:05.722Z,99048.98
2023-04-25T07:01:39.412Z,99045.27
2023-04-25T07:04:11.438Z,99043.88
2023-04-25T07:06:45.055Z,99045.81
2023-04-25T07:09:13.882Z,99047.85
2023-04-25T07:11:45.408Z,99047.55
2023-04-25T07:14:13.864Z,99046.20
2023-04-25T07:16:42.031Z,99047.27
2023-04-25T07:19:10.138Z,99048.58
2023-04-25T07:21:38.789Z,99048.75
2023-04-25T07:24:07.524Z,99046.98
2023-04-25T07:26:38.545Z,99046.63
2023-04-25T07:29:24.797Z,99050.70
2023-04-25T07:31:54.036Z,99048.11
2023-04-25T07:34:22.525Z,99049.91
2023-04-25T07:36:50.842Z,99049.64
2023-04-25T07:39:19.081Z,99048.69
2023-04-25T07:41:47.224Z,99046.39
2023-04-25T07:44:20.189Z,99050.99
2023-04-25T07:46:48.462Z,99055.16
2023-04-25T07:49:17.335Z,99054.01
2023-04-25T07:51:45.836Z,99052.48
2023-04-25T07:54:16.727Z,99054.80
2023-04-25T07:56:52.509Z,99059.20
2023-04-25T07:59:23.070Z,99062.14
2023-04-25T08:01:51.537Z,99059.47
2023-04-25T08:04:20.427Z,99059.58
2023-04-25T08:06:53.571Z,99060.80
2023-04-25T08:09:26.896Z,99064.77
2023-04-25T08:11:54.949Z,99063.45
2023-04-25T08:14:27.710Z,99063.04
2023-04-25T08:16:55.982Z,99063.58
2023-04-25T08:19:24.876Z,99068.45
2023-04-25T08:21:53.513Z,99067.77
2023-04-25T08:24:27.532Z,99067.59
2023-04-25T08:26:56.875Z,99065.63
2023-04-25T08:29:26.895Z,99069.23
2023-04-25T08:31:55.681Z,99067.91
2023-04-25T08:34:23.938Z,99066.71
2023-04-25T08:36:57.326Z,99068.27
2023-04-25T08:39:31.837Z,99067.81
2023-04-25T08:42:16.442Z,99068.41
2023-04-25T08:44:47.344Z,99068.66
2023-04-25T08:47:16.017Z,99066.86
2023-04-25T08:49:49.501Z,99067.16
2023-04-25T08:52:23.683Z,99065.96
2023-04-25T08:54:53.833Z,99062.60
2023-04-25T08:57:22.844Z,99061.45
2023-04-25T08:59:53.007Z,99062.57
2023-04-25T09:02:22.232Z,99064.13
2023-04-25T09:04:51.595Z,99068.25
2023-04-25T09:07:22.311Z,99063.95
2023-04-25T09:09:50.291Z,99065.12
2023-04-25T09:12:21.238Z,99064.02
2023-04-25T09:15:10.685Z,99061.70
2023-04-25T09:18:00.616Z,99063.30
2023-04-25T09:21:00.940Z,99061.87
2023-04-25T09:23:39.452Z,99059.96
2023-04-25T09:26:10.587Z,99063.38
2023-04-25T09:28:39.751Z,99062.21
2023-04-25T09:31:11.679Z,99063.79
2023-04-25T09:33:46.866Z,99065.62
2023-04-25T09:36:16.360Z,99066.46
2023-04-25T09:39:17.241Z,99064.77
2023-04-25T09:41:55.304Z,99059.79
2023-04-25T09:44:28.160Z,99060.10
2023-04-25T09:46:56.727Z,99057.45
2023-04-25T09:49:28.874Z,99060.33
2023-04-25T09:52:09.777Z,99052.83
2023-04-25T09:54:49.102Z,99052.29
2023-04-25T09:57:25.317Z,99055.84
2023-04-25T09:59:56.561Z,99055.95
2023-04-25T10:02:28.354Z,99054.23
2023-04-25T10:05:04.643Z,99053.52
2023-04-25T10:07:41.132Z,99059.16
2023-04-25T10:10:16.645Z,99060.42
2023-04-25T10:12:46.215Z,99059.43
2023-04-25T10:15:16.457Z,99056.33
2023-04-25T10:17:45.932Z,99057.06
2023-04-25T10:20:14.576Z,99059.14
2023-04-25T10:22:44.873Z,99058.20
2023-04-25T10:25:13.889Z,99059.70
2023-04-25T10:27:42.634Z,99059.36
2023-04-25T10:30:17.903Z,99053.71
2023-04-25T10:32:49.524Z,99048.98
2023-04-25T10:35:26.404Z,99047.98
2023-04-25T10:38:07.873Z,99050.93
2023-04-25T10:40:36.330Z,99050.35
2023-04-25T10:43:32.584Z,99048.73
2023-04-25T10:46:01.503Z,99049.81
2023-04-25T10:48:32.172Z,99050.38
2023-04-25T10:51:11.028Z,99048.73
2023-04-25T10:53:39.233Z,99050.98
2023-04-25T10:56:14.500Z,99051.14
2023-04-25T10:58:44.512Z,99052.31
2023-04-25T11:01:40.062Z,99051.71
2023-04-25T11:04:31.474Z,99052.63
2023-04-25T11:07:12.614Z,99054.95
2023-04-25T11:09:41.715Z,99055.25
2023-04-25T11:12:12.794Z,99061.06
2023-04-25T11:17:10.659Z,99067.26
2023-04-25T11:19:39.112Z,99067.08
2023-04-25T11:22:09.000Z,99069.16
2023-04-25T11:24:37.965Z,99072.42
2023-04-25T11:27:09.627Z,99073.16
2023-04-25T11:29:38.017Z,99073.17
2023-04-25T11:32:06.548Z,99069.69
2023-04-25T11:34:35.565Z,99071.44
2023-04-25T11:37:04.711Z,99070.27
2023-04-25T11:39:32.826Z,99067.17
2023-04-25T11:42:03.862Z,99064.39
2023-04-25T11:44:39.809Z,99064.05
2023-04-25T11:47:08.238Z,99060.14
2023-04-25T11:49:36.894Z,99059.90
2023-04-25T11:52:08.418Z,99058.46
2023-04-25T11:54:38.376Z,99059.27
2023-04-25T11:57:06.648Z,99059.41
2023-04-25T11:59:35.379Z,99064.34
2023-04-25T12:02:04.051Z,99063.07
2023-04-25T12:04:33.398Z,99061.21
2023-04-25T12:07:03.290Z,99064.14
2023-04-25T12:09:33.324Z,99063.45
2023-04-25T12:12:06.866Z,99062.60
2023-04-25T12:14:36.798Z,99061.64
2023-04-25T12:17:09.356Z,99062.27
2023-04-25T12:19:42.467Z,99060.67
2023-04-25T12:22:22.758Z,99059.48
2023-04-25T12:24:51.466Z,99059.95
2023-04-25T12:27:23.566Z,99055.20
2023-04-25T12:29:54.107Z,99054.07
2023-04-25T12:32:22.947Z,99055.05
2023-04-25T12:34:51.497Z,99054.23
2023-04-25T12:37:20.736Z,99054.16
2023-04-25T12:39:48.699Z,99053.65
2023-04-25T12:42:16.817Z,99053.01
2023-04-25T12:44:44.653Z,99048.41
2023-04-25T12:47:13.673Z,99049.05
2023-04-25T12:49:41.644Z,99050.30
2023-04-25T12:52:09.523Z,99048.46
2023-04-25T12:54:37.723Z,99049.46
2023-04-25T12:57:05.741Z,99047.28
2023-04-25T12:59:33.879Z,99042.58
2023-04-25T13:02:02.865Z,99041.45
2023-04-25T13:04:31.053Z,99040.02
2023-04-25T13:06:59.197Z,99043.92
2023-04-25T13:09:27.495Z,99040.96
2023-04-25T13:11:57.291Z,99044.77
2023-04-25T13:14:27.588Z,99044.23
2023-04-25T13:16:56.008Z,99040.86
2023-04-25T13:19:23.989Z,99044.02
2023-04-25T13:21:52.217Z,99042.00
2023-04-25T13:24:20.188Z,99041.77
2023-04-25T13:26:48.348Z,99042.73
2023-04-25T13:29:16.744Z,99037.77
2023-04-25T13:31:45.064Z,99037.83
2023-04-25T13:34:13.861Z,99034.30
2023-04-25T13:36:41.911Z,99033.01
2023-04-25T13:39:09.949Z,99034.51
2023-04-25T13:41:38.175Z,99035.11
2023-04-25T13:44:06.210Z,99036.34
2023-04-25T13:46:46.282Z,99033.86
2023-04-25T13:49:15.645Z,99031.92
2023-04-25T13:51:44.031Z,99033.88
2023-04-25T13:54:12.251Z,99032.31
2023-04-25T13:56:43.504Z,99033.63
2023-04-25T13:59:12.480Z,99036.20
2023-04-25T14:01:40.888Z,99034.02
2023-04-25T14:04:09.963Z,99031.98
2023-04-25T14:06:38.618Z,99034.70
2023-04-25T14:09:07.815Z,99032.88
2023-04-25T14:11:36.027Z,99031.31
2023-04-25T14:14:03.983Z,99030.04
2023-04-25T14:16:35.294Z,99029.98
2023-04-25T14:19:03.156Z,99030.52
2023-04-25T14:21:33.416Z,99030.08
2023-04-25T14:24:01.760Z,99031.11
2023-04-25T14:26:29.822Z,99029.16
2023-04-25T14:28:57.739Z,99030.89
2023-04-25T14:31:25.971Z,99030.57
2023-04-25T14:33:56.977Z,99027.28
2023-04-25T14:36:29.298Z,99030.95
2023-04-25T14:38:58.137Z,99030.70
2023-04-25T14:41:27.339Z,99031.32
2023-04-25T14:43:56.884Z,99030.96
2023-04-25T14:46:25.084Z,99031.70
2023-04-25T14:48:53.273Z,99032.41
2023-04-25T14:51:21.927Z,99035.80
2023-04-25T14:53:50.115Z,99035.48
2023-04-25T14:56:18.411Z,99036.60
2023-04-25T14:58:49.252Z,99033.67
2023-04-25T15:01:17.400Z,99031.08
2023-04-25T15:03:45.725Z,99027.88
2023-04-25T15:06:14.000Z,99030.20
2023-04-25T15:08:42.753Z,99032.60
2023-04-25T15:11:12.159Z,99034.71
2023-04-25T15:13:41.473Z,99036.23
2023-04-25T15:16:09.619Z,99038.95
2023-04-25T15:18:37.684Z,99036.71
2023-04-25T15:21:05.980Z,99037.84
2023-04-25T15:23:34.895Z,99040.48
2023-04-25T15:26:03.487Z,99042.64
2023-04-25T15:28:32.504Z,99038.70
2023-04-25T15:31:01.406Z,99043.14
2023-04-25T15:33:29.476Z,99039.84
2023-04-25T15:35:59.146Z,99038.83
2023-04-25T15:38:27.588Z,99041.06
2023-04-25T15:40:55.602Z,99040.44
2023-04-25T15:43:23.698Z,99041.80
2023-04-25T15:45:52.511Z,99044.77
2023-04-25T15:48:20.772Z,99044.39
2023-04-25T15:50:49.634Z,99042.02
2023-04-25T15:53:17.687Z,99045.91
2023-04-25T15:55:46.813Z,99051.99
2023-04-25T15:58:14.968Z,99061.18
2023-04-25T16:00:45.381Z,99068.02
2023-04-25T16:03:13.618Z,99075.26
2023-04-25T16:05:43.088Z,99079.97
2023-04-25T16:08:11.153Z,99085.39
2023-04-25T16:10:39.482Z,99089.36
2023-04-25T16:13:08.394Z,99093.86
2023-04-25T16:15:37.027Z,99096.03
2023-04-25T16:18:05.260Z,99101.90
2023-04-25T16:20:36.247Z,99111.17
2023-04-25T16:23:04.450Z,99114.63
2023-04-25T16:25:32.544Z,99115.22
2023-04-25T16:28:00.604Z,99115.21
2023-04-25T16:30:31.488Z,99121.67
2023-04-25T16:32:59.780Z,99124.88
2023-04-25T16:35:30.797Z,99127.19
2023-04-25T16:37:59.120Z,99132.80
2023-04-25T16:40:27.345Z,99138.22
2023-04-25T16:42:55.613Z,99141.01
2023-04-25T16:45:24.599Z,99145.04
2023-04-25T16:47:52.751Z,99148.36
2023-04-25T16:50:21.216Z,99153.26
2023-04-25T16:52:49.855Z,99156.45
2023-04-25T16:55:18.111Z,99158.86
2023-04-25T16:57:46.105Z,99159.45
2023-04-25T17:00:16.696Z,99163.87
2023-04-25T17:02:45.497Z,99170.86
2023-04-25T17:05:13.727Z,99173.54
2023-04-25T17:07:41.643Z,99178.20
2023-04-25T17:10:10.588Z,99179.11
2023-04-25T17:12:38.554Z,99182.93
2023-04-25T17:15:07.472Z,99186.48
2023-04-25T17:17:35.928Z,99190.19
2023-04-25T17:20:06.612Z,99188.65
2023-04-25T17:22:37.736Z,99189.36
2023-04-25T17:25:07.486Z,99193.22
2023-04-25T17:27:37.159Z,99190.33
2023-04-25T17:30:07.221Z,99190.77
2023-04-25T17:32:36.087Z,99198.11
2023-04-25T17:35:05.687Z,99205.15
2023-04-25T17:37:34.071Z,99205.15
2023-04-25T17:40:03.992Z,99204.31
2023-04-25T17:42:32.341Z,99206.96
2023-04-25T17:45:00.778Z,99214.54
2023-04-25T17:47:28.830Z,99221.27
2023-04-25T17:49:57.029Z,99225.02
2023-04-25T17:52:24.937Z,99229.38
2023-04-25T17:54:52.903Z,99231.31
2023-04-25T17:57:23.242Z,99234.36
2023-04-25T17:59:51.869Z,99237.84
2023-04-25T18:02:20.335Z,99243.64
2023-04-25T18:04:48.316Z,99245.02
2023-04-25T18:07:16.747Z,99250.40
2023-04-25T18:09:47.427Z,99260.34
2023-04-25T18:12:16.381Z,99265.39
2023-04-25T18:14:45.801Z,99267.73
2023-04-25T18:17:14.782Z,99270.41
2023-04-25T18:19:42.979Z,99274.59
2023-04-25T18:22:12.994Z,99281.86
2023-04-25T18:24:41.441Z,99283.88
2023-04-25T18:27:10.250Z,99291.90
2023-04-25T18:29:38.604Z,99293.61
2023-04-25T18:32:06.703Z,99293.09
2023-04-25T18:34:34.831Z,99295.89
2023-04-25T18:37:02.877Z,99297.45
2023-04-25T18:39:31.239Z,99303.14
2023-04-25T18:42:05.562Z,99308.48
2023-04-25T18:44:40.203Z,99308.90
2023-04-25T18:47:09.171Z,99309.53
2023-04-25T18:49:37.714Z,99309.33
2023-04-25T18:52:08.732Z,99314.73
2023-04-25T18:54:37.411Z,99314.27
2023-04-25T18:57:06.295Z,99314.29
2023-04-25T18:59:34.444Z,99318.73
2023-04-25T19:02:03.129Z,99326.20
2023-04-25T19:04:31.512Z,99328.75
2023-04-25T19:07:00.481Z,99331.66
2023-04-25T19:09:28.411Z,99331.39
2023-04-25T19:11:57.795Z,99334.96
2023-04-25T19:14:26.754Z,99339.97
2023-04-25T19:16:54.554Z,99342.30
2023-04-25T19:19:22.940Z,99345.58
2023-04-25T19:21:51.059Z,99346.36
2023-04-25T19:24:19.172Z,99345.73
2023-04-25T19:26:47.257Z,99346.88
2023-04-25T19:29:16.239Z,99349.42
2023-04-25T19:31:45.141Z,99351.10
2023-04-25T19:34:14.001Z,99349.70
2023-04-25T19:36:42.679Z,99348.64
2023-04-25T19:39:11.050Z,99352.09
2023-04-25T19:41:39.120Z,99353.24
2023-04-25T19:44:08.473Z,99356.02
2023-04-25T19:46:36.884Z,99357.16
2023-04-25T19:49:08.649Z,99357.06
2023-04-25T19:51:37.478Z,99356.84
2023-04-25T19:54:05.897Z,99356.84
2023-04-25T19:56:34.258Z,99353.69
2023-04-25T19:59:03.079Z,99350.65
2023-04-25T20:01:31.361Z,99350.54
2023-04-25T20:03:59.126Z,99356.13
2023-04-25T20:06:27.588Z,99358.16
2023-04-25T20:08:55.907Z,99359.84
2023-04-25T20:11:24.279Z,99360.72
2023-04-25T20:13:52.541Z,99358.52
2023-04-25T20:16:22.024Z,99358.77
2023-04-25T20:18:50.603Z,99357.70
2023-04-25T20:21:20.552Z,99356.02
2023-04-25T20:23:48.362Z,99354.35
2023-04-25T20:26:16.352Z,99355.81
2023-04-25T20:28:44.349Z,99356.39
2023-04-25T20:31:12.427Z,99358.25
2023-04-25T20:33:41.924Z,99365.28
2023-04-25T20:36:10.076Z,99369.27
2023-04-25T20:38:37.969Z,99370.88
2023-04-25T20:41:06.039Z,99369.41
2023-04-25T20:43:34.063Z,99369.42
2023-04-25T20:46:02.081Z,99365.36
2023-04-25T20:48:29.890Z,99365.96
2023-04-25T20:51:00.278Z,99363.39
2023-04-25T20:53:28.252Z,99363.30
2023-04-25T20:55:56.422Z,99366.35
2023-04-25T20:58:24.952Z,99367.29
2023-04-25T21:00:53.699Z,99367.68
2023-04-25T21:03:22.758Z,99369.99
2023-04-25T21:05:53.083Z,99373.51
2023-04-25T21:08:20.823Z,99376.02
2023-04-25T21:10:48.879Z,99376.73
2023-04-25T21:13:16.993Z,99376.75
2023-04-25T21:15:45.201Z,99377.77
2023-04-25T21:18:13.129Z,99376.16
2023-04-25T21:20:41.443Z,99377.34
2023-04-25T21:23:09.535Z,99377.78
2023-04-25T21:25:37.480Z,99382.58
2023-04-25T21:28:06.498Z,99388.55
2023-04-25T21:30:35.060Z,99396.90
2023-04-25T21:33:03.693Z,99400.11
2023-04-25T21:35:31.743Z,99401.42
2023-04-25T21:38:00.020Z,99401.96
2023-04-25T21:40:27.834Z,99397.89
2023-04-25T21:42:56.942Z,99395.64
2023-04-25T21:45:25.130Z,99389.69
2023-04-25T21:47:52.977Z,99391.20
2023-04-25T21:50:21.191Z,99390.83
2023-04-25T21:52:49.429Z,99389.12
2023-04-25T21:55:17.672Z,99388.00
2023-04-25T21:57:46.606Z,99387.11
2023-04-25T22:00:22.137Z,99385.25
2023-04-25T22:02:56.710Z,99382.23
2023-04-25T22:05:27.081Z,99384.90
2023-04-25T22:07:57.339Z,99384.00
2023-04-25T22:10:25.522Z,99383.86
2023-04-25T22:12:54.007Z,99388.58
2023-04-25T22:15:24.112Z,99394.33
2023-04-25T22:17:55.256Z,99395.38
2023-04-25T22:20:26.489Z,99396.90
2023-04-25T22:22:55.844Z,99398.09
2023-04-25T22:25:24.139Z,99402.54
2023-04-25T22:27:52.391Z,99405.13
2023-04-25T22:30:20.499Z,99406.17
2023-04-25T22:32:48.458Z,99410.33
2023-04-25T22:35:16.574Z,99414.11
2023-04-25T22:37:44.979Z,99413.05
2023-04-25T22:40:13.458Z,99413.19
2023-04-25T22:42:42.339Z,99410.31
2023-04-25T22:45:10.974Z,99411.44
2023-04-25T22:47:39.917Z,99412.95
2023-04-25T22:50:13.329Z,99417.30
2023-04-25T22:52:42.671Z,99419.48
2023-04-25T22:55:12.663Z,99415.42
2023-04-25T22:57:41.678Z,99411.17
2023-04-25T23:00:19.372Z,99414.88
2023-04-25T23:02:47.684Z,99416.69
2023-04-25T23:05:15.806Z,99415.99
2023-04-25T23:07:45.095Z,99416.02
2023-04-25T23:10:16.023Z,99414.66
2023-04-25T23:12:43.958Z,99411.13
2023-04-25T23:15:13.782Z,99409.80
2023-04-25T23:17:42.240Z,99410.44
2023-04-25T23:20:11.398Z,99414.52
2023-04-25T23:22:39.727Z,99420.06
2023-04-25T23:25:08.571Z,99420.30
2023-04-25T23:27:37.051Z,99421.83
2023-04-25T23:30:06.478Z,99423.05
2023-04-25T23:32:34.880Z,99426.11
2023-04-25T23:35:04.920Z,99427.41
2023-04-25T23:37:33.976Z,99430.02
2023-04-25T23:40:02.017Z,99432.34
2023-04-25T23:42:30.172Z,99433.98
2023-04-25T23:44:57.912Z,99432.83
2023-04-25T23:47:26.350Z,99434.36
2023-04-25T23:49:54.369Z,99435.04
2023-04-25T23:52:22.479Z,99436.02
2023-04-25T23:54:50.626Z,99435.98
2023-04-25T23:57:18.405Z,99439.41
2023-04-25T23:59:46.331Z,99439.01
